Time;durP1;ratioP1;P1;durP2;ratioP2;P2;SDS_P1;SDS_P2;PMS_P1;PMS_P2;Temp;Humidity;BMP_temperature;BMP_pressure;BME280_temperature;BME280_humidity;BME280_pressure;Samples;Min_cycle;Max_cycle;Signal;HPM_P1;HPM_P2
2021/12/06 00:00:07;;;;;;;15.48;9.32;;;;;;;8.27;62.41;101082.28;4933268;28;113803;-62
2021/12/06 00:02:35;;;;;;;14.95;8.55;;;;;;;8.26;62.50;101085.81;4930180;28;124101;-62
2021/12/06 00:05:03;;;;;;;17.27;9.32;;;;;;;8.26;62.36;101088.44;4930864;28;124313;-62
2021/12/06 00:07:30;;;;;;;14.82;9.05;;;;;;;8.26;62.71;101091.09;4932357;28;114607;-65
2021/12/06 00:09:57;;;;;;;14.85;9.23;;;;;;;8.27;62.43;101091.94;4933020;28;114660;-62
2021/12/06 00:12:24;;;;;;;15.07;9.15;;;;;;;8.28;62.62;101094.53;4929756;28;123967;-62
2021/12/06 00:14:51;;;;;;;17.25;9.57;;;;;;;8.29;62.57;101101.56;4931487;28;125609;-62
2021/12/06 00:17:19;;;;;;;16.27;9.65;;;;;;;8.29;62.65;101101.56;4931018;28;114495;-62
2021/12/06 00:19:46;;;;;;;16.65;9.95;;;;;;;8.30;62.87;101107.69;4928977;28;114288;-62
2021/12/06 00:22:21;;;;;;;17.10;9.13;;;;;;;8.29;62.54;101117.38;4930099;28;124224;-62
2021/12/06 00:24:54;;;;;;;17.98;9.57;;;;;;;8.29;62.76;101122.66;4929878;28;124206;-62
2021/12/06 00:27:23;;;;;;;17.05;9.70;;;;;;;8.28;62.48;101115.63;4929282;28;114136;-62
2021/12/06 00:29:51;;;;;;;17.00;9.40;;;;;;;8.30;62.43;101129.66;4913593;28;113125;-62
2021/12/06 00:32:18;;;;;;;15.45;9.20;;;;;;;8.30;62.47;101124.38;4931894;28;123664;-62
2021/12/06 00:34:46;;;;;;;18.88;9.82;;;;;;;8.30;62.51;101124.38;4928518;28;124642;-62
2021/12/06 00:37:19;;;;;;;16.73;9.93;;;;;;;8.30;62.52;101128.78;4929317;28;113171;-62
2021/12/06 00:39:50;;;;;;;17.27;10.30;;;;;;;8.28;62.24;101126.19;4930685;28;114111;-62
2021/12/06 00:42:19;;;;;;;17.38;9.77;;;;;;;8.28;62.46;101125.34;4944253;28;123964;-62
2021/12/06 00:44:46;;;;;;;17.60;9.98;;;;;;;8.26;62.39;101128.03;4931877;28;124013;-62
2021/12/06 00:47:14;;;;;;;16.75;9.80;;;;;;;8.26;62.75;101133.31;4930755;28;114008;-63
2021/12/06 00:49:41;;;;;;;16.55;9.85;;;;;;;8.26;62.52;101137.72;4933098;28;114209;-62
2021/12/06 00:52:08;;;;;;;19.02;10.65;;;;;;;8.24;62.35;101140.41;4928814;28;125221;-62
2021/12/06 00:54:36;;;;;;;20.30;10.73;;;;;;;8.22;62.68;101146.66;4930725;28;125064;-63
2021/12/06 00:57:07;;;;;;;19.05;10.40;;;;;;;8.20;62.42;101149.31;4930209;28;115299;-62
2021/12/06 00:59:36;;;;;;;17.90;10.73;;;;;;;8.17;62.90;101150.28;4929504;28;114007;-62
2021/12/06 01:02:05;;;;;;;18.45;10.13;;;;;;;8.18;62.71;101156.44;4930992;28;125193;-62
2021/12/06 01:04:36;;;;;;;16.98;10.32;;;;;;;8.19;62.57;101163.41;4931722;28;123088;-62
2021/12/06 01:07:05;;;;;;;17.42;10.18;;;;;;;8.20;62.55;101165.16;4930787;28;114642;-63
2021/12/06 01:09:32;;;;;;;19.13;10.52;;;;;;;8.22;62.63;101163.34;4929092;28;114041;-63
2021/12/06 01:12:00;;;;;;;19.02;10.75;;;;;;;8.23;62.77;101173.00;4929630;28;124285;-63
2021/12/06 01:14:27;;;;;;;18.05;9.80;;;;;;;8.24;63.07;101172.06;4929702;28;123759;-63
2021/12/06 01:16:54;;;;;;;16.95;9.90;;;;;;;8.26;62.76;101172.88;4913374;28;113478;-63
2021/12/06 01:19:28;;;;;;;18.15;10.73;;;;;;;8.28;62.58;101184.25;4931297;28;113851;-62
2021/12/06 01:22:13;;;;;;;18.88;10.13;;;;;;;8.28;62.84;101189.53;4944072;28;127280;-63
2021/12/06 01:24:49;;;;;;;16.95;10.27;;;;;;;8.28;62.60;101194.81;4931408;28;123515;-63
2021/12/06 01:27:40;;;;;;;19.43;11.27;;;;;;;8.28;62.56;101202.72;4930649;28;114287;-63
2021/12/06 01:30:31;;;;;;;18.30;10.50;;;;;;;8.26;62.34;101207.19;4926907;28;113234;-62
2021/12/06 01:40:59;;;;;;;21.60;11.38;;;;;;;8.16;62.52;101209.22;4930540;28;114337;-62
2021/12/06 01:43:29;;;;;;;20.70;11.45;;;;;;;8.16;62.66;101205.75;4927555;28;123237;-62
2021/12/06 01:45:58;;;;;;;20.70;12.05;;;;;;;8.15;62.67;101209.28;4929030;28;123006;-62
2021/12/06 01:48:25;;;;;;;23.88;12.27;;;;;;;8.17;62.61;101202.19;4928066;28;114514;-62
2021/12/06 01:50:53;;;;;;;21.88;12.10;;;;;;;8.18;62.73;101203.91;4930263;28;114460;-63
2021/12/06 01:53:21;;;;;;;23.17;12.32;;;;;;;8.19;62.64;101205.63;4930510;28;123380;-62
2021/12/06 01:55:49;;;;;;;20.77;11.90;;;;;;;8.18;62.71;101203.91;4929074;28;124275;-62
2021/12/06 01:58:16;;;;;;;20.20;11.80;;;;;;;8.20;62.72;101212.66;4927201;28;113281;-62
2021/12/06 02:00:47;;;;;;;22.60;12.30;;;;;;;8.21;62.69;101214.38;4927256;28;114108;-62
2021/12/06 02:03:20;;;;;;;24.67;12.38;;;;;;;8.24;62.71;101218.69;4944950;28;123452;-62
2021/12/06 02:05:49;;;;;;;22.65;12.27;;;;;;;8.24;62.36;101214.28;4929384;28;124345;-63
2021/12/06 02:08:22;;;;;;;23.20;12.73;;;;;;;8.23;62.61;101217.84;4931156;28;113946;-62
2021/12/06 02:10:50;;;;;;;23.95;12.73;;;;;;;8.25;62.51;101221.31;4924938;28;114400;-61
2021/12/06 02:13:20;;;;;;;25.42;12.98;;;;;;;8.24;62.66;101218.69;4927738;28;123770;-61
2021/12/06 02:15:52;;;;;;;23.92;12.63;;;;;;;8.25;62.51;101225.69;4929913;28;123090;-61
2021/12/06 02:21:20;;;;;;;21.83;12.00;;;;;;;8.24;62.67;101239.81;4930303;28;113284;-62
2021/12/06 02:23:48;;;;;;;21.80;11.35;;;;;;;8.21;62.71;101235.47;4930123;28;122823;-61
2021/12/06 02:26:17;;;;;;;22.77;11.95;;;;;;;8.21;62.33;101235.47;4930315;28;122997;-61
2021/12/06 02:28:45;;;;;;;23.20;12.38;;;;;;;8.21;62.18;101246.03;4930926;28;113516;-61
2021/12/06 02:31:16;;;;;;;21.95;11.98;;;;;;;8.19;62.31;101242.56;4930498;28;113108;-61
2021/12/06 02:33:45;;;;;;;27.52;13.32;;;;;;;8.18;62.17;101240.84;4930171;28;123225;-61
2021/12/06 02:36:12;;;;;;;24.63;12.77;;;;;;;8.17;62.58;101244.38;4927644;28;125533;-61
2021/12/06 02:38:40;;;;;;;25.40;13.88;;;;;;;8.15;62.77;101240.94;4913070;28;114184;-61
2021/12/06 02:41:09;;;;;;;24.50;13.02;;;;;;;8.15;62.55;101241.78;4929770;28;114262;-62
2021/12/06 02:43:37;;;;;;;25.48;13.63;;;;;;;8.17;62.65;101244.38;4930044;28;124207;-61
2021/12/06 02:46:05;;;;;;;22.63;12.50;;;;;;;8.17;62.85;101244.38;4928893;28;124543;-62
2021/12/06 02:48:33;;;;;;;23.58;12.52;;;;;;;8.17;62.79;101240.00;4931089;28;114297;-61
2021/12/06 02:51:04;;;;;;;24.38;12.63;;;;;;;8.17;62.43;101239.13;4928131;28;114610;-61
2021/12/06 02:53:34;;;;;;;22.75;12.43;;;;;;;8.17;62.54;101239.13;4929348;28;124499;-61
2021/12/06 02:56:06;;;;;;;24.33;12.75;;;;;;;8.16;62.39;101242.69;4930572;28;123023;-60
2021/12/06 03:01:08;;;;;;;26.00;12.77;;;;;;;8.14;62.47;101244.50;4927470;28;113787;-61
2021/12/06 03:03:36;;;;;;;25.83;13.60;;;;;;;8.10;62.36;101249.00;4941539;28;123497;-61
2021/12/06 03:06:06;;;;;;;22.40;12.32;;;;;;;8.10;62.47;101259.53;4919846;28;122996;-61
2021/12/06 03:08:47;;;;;;;23.85;13.32;;;;;;;8.10;62.57;101263.94;4929616;28;114648;-62
2021/12/06 03:11:23;;;;;;;23.63;12.80;;;;;;;8.09;62.38;101256.94;4924133;28;112737;-62
2021/12/06 03:13:51;;;;;;;;;;;;;;;8.06;62.65;101262.28;4929605;28;122978;-61
2021/12/06 03:16:19;;;;;;;23.02;11.95;;;;;;;8.09;62.35;101262.22;4928165;28;123334;-62
2021/12/06 03:18:50;;;;;;;20.27;11.05;;;;;;;8.08;62.38;101266.63;4928880;28;113343;-61
2021/12/06 03:21:18;;;;;;;23.23;11.90;;;;;;;8.09;62.40;101267.50;4929903;28;113491;-62
2021/12/06 03:23:46;;;;;;;23.17;11.82;;;;;;;8.09;62.59;101270.13;4929426;28;123205;-62
2021/12/06 03:26:14;;;;;;;23.13;12.00;;;;;;;8.10;62.71;101266.56;4928484;28;123502;-61
2021/12/06 03:28:43;;;;;;;23.02;12.43;;;;;;;8.11;62.73;101268.31;4932412;28;115093;-62
2021/12/06 03:31:14;;;;;;;23.48;11.82;;;;;;;8.13;62.81;101271.78;4929823;28;114491;-61
2021/12/06 03:33:45;;;;;;;21.98;12.20;;;;;;;8.14;62.76;101284.06;4930569;28;123507;-61
2021/12/06 03:36:13;;;;;;;21.88;11.80;;;;;;;8.14;62.52;101286.72;4932199;28;123632;-62
2021/12/06 03:38:42;;;;;;;24.85;12.38;;;;;;;8.14;62.69;101286.72;4930265;28;113946;-61
2021/12/06 03:41:13;;;;;;;22.35;11.60;;;;;;;8.14;62.63;101286.72;4931754;28;113306;-61
2021/12/06 03:43:41;;;;;;;24.67;12.18;;;;;;;8.13;62.56;101284.97;4932005;28;122924;-61
2021/12/06 03:46:11;;;;;;;22.08;11.30;;;;;;;8.12;62.30;101284.09;4933308;28;122826;-62
2021/12/06 03:48:40;;;;;;;23.05;11.38;;;;;;;8.12;62.53;101288.53;4929662;28;113542;-61
2021/12/06 03:51:08;;;;;;;22.55;11.30;;;;;;;8.10;62.61;101290.31;4931381;28;113568;-61
2021/12/06 03:53:36;;;;;;;24.23;11.98;;;;;;;8.09;62.59;101288.59;4928210;28;123458;-62
2021/12/06 03:56:05;;;;;;;21.65;11.75;;;;;;;8.09;62.50;101296.50;4929234;28;123027;-61
2021/12/06 03:58:33;;;;;;;24.20;11.93;;;;;;;8.07;62.43;101295.69;4932807;28;113607;-61
2021/12/06 04:01:04;;;;;;;23.40;11.95;;;;;;;8.05;62.33;101292.22;4930435;28;113364;-61
2021/12/06 04:03:36;;;;;;;20.80;10.93;;;;;;;8.04;62.26;101290.50;4931028;28;123424;-61
2021/12/06 04:06:06;;;;;;;20.45;10.95;;;;;;;8.03;62.46;101291.41;4930551;28;123016;-61
2021/12/06 04:08:34;;;;;;;23.60;12.38;;;;;;;8.04;62.67;101290.50;4932695;28;113363;-61
2021/12/06 04:11:02;;;;;;;21.50;11.07;;;;;;;8.03;62.50;101294.06;4932354;28;113629;-61
2021/12/06 04:13:33;;;;;;;23.92;11.93;;;;;;;8.05;62.78;101286.97;4930263;28;123495;-61
2021/12/06 04:16:03;;;;;;;23.02;11.82;;;;;;;8.04;62.48;101283.44;4930422;28;122747;-61
2021/12/06 04:18:33;;;;;;;19.63;11.55;;;;;;;8.04;62.62;101287.84;4932102;28;114508;-61
2021/12/06 04:21:00;;;;;;;21.60;12.23;;;;;;;8.05;62.44;101286.97;4932028;28;114726;-62
2021/12/06 04:23:28;;;;;;;23.15;12.50;;;;;;;8.02;62.28;101277.34;4931925;28;123503;-61
2021/12/06 04:25:56;;;;;;;22.13;11.80;;;;;;;8.03;62.41;101283.50;4930033;28;123007;-61
2021/12/06 04:28:24;;;;;;;22.70;11.68;;;;;;;8.02;62.49;101293.16;4932604;28;113459;-61
2021/12/06 04:30:52;;;;;;;22.65;11.70;;;;;;;8.02;62.43;101294.94;4931617;28;114316;-61
2021/12/06 04:33:19;;;;;;;22.85;11.65;;;;;;;8.02;62.37;101297.59;4927222;28;123751;-61
2021/12/06 04:35:49;;;;;;;20.90;11.90;;;;;;;8.02;62.34;101297.59;4931226;28;123064;-61
2021/12/06 04:38:16;;;;;;;20.60;10.70;;;;;;;8.02;62.82;101302.84;4931443;28;113245;-62
2021/12/06 04:40:44;;;;;;;23.98;11.82;;;;;;;8.02;62.33;101308.13;4930039;28;113833;-61
2021/12/06 04:43:11;;;;;;;21.77;12.18;;;;;;;8.01;62.45;101302.00;4930883;28;123417;-62
2021/12/06 04:45:41;;;;;;;23.55;11.80;;;;;;;8.03;62.63;101299.31;4929743;28;123203;-61
2021/12/06 04:48:09;;;;;;;22.67;11.70;;;;;;;8.02;62.67;101298.44;4929826;28;113661;-62
2021/12/06 04:50:38;;;;;;;21.85;11.55;;;;;;;8.03;62.54;101294.06;4929265;28;114171;-62
2021/12/06 04:53:13;;;;;;;23.25;12.38;;;;;;;8.04;62.56;101301.03;4931257;28;123658;-62
2021/12/06 04:55:42;;;;;;;24.20;12.48;;;;;;;8.03;62.76;101307.25;4946339;28;122919;-61
2021/12/06 04:58:13;;;;;;;22.40;11.45;;;;;;;8.03;62.49;101315.16;4930915;28;113512;-62
2021/12/06 05:00:48;;;;;;;25.80;12.55;;;;;;;8.02;62.48;101313.41;4929373;28;114749;-61
2021/12/06 05:03:17;;;;;;;;;;;;;;;7.98;62.28;101308.19;4926701;28;122634;-61
2021/12/06 05:05:50;;;;;;;24.02;11.35;;;;;;;7.97;62.37;101311.75;4930377;28;123197;-62
2021/12/06 05:08:31;;;;;;;20.63;11.50;;;;;;;7.93;62.19;101315.41;4928859;28;114395;-62
2021/12/06 05:11:01;;;;;;;23.33;11.75;;;;;;;7.90;62.43;101315.47;4931677;28;114218;-62
2021/12/06 05:13:30;;;;;;;20.70;11.20;;;;;;;7.84;62.34;101320.91;4931550;28;123138;-63
2021/12/06 05:15:58;;;;;;;20.33;11.07;;;;;;;7.81;62.24;101326.25;4928804;28;123575;-63
2021/12/06 05:18:27;;;;;;;20.50;11.15;;;;;;;7.79;62.20;101333.34;4929463;28;113491;-63
2021/12/06 05:20:55;;;;;;;20.80;10.82;;;;;;;7.74;62.16;101319.41;4928487;28;113491;-63
2021/12/06 05:23:23;;;;;;;23.90;11.38;;;;;;;7.70;62.04;101338.84;4930810;28;123740;-62
2021/12/06 05:25:50;;;;;;;22.35;11.43;;;;;;;7.66;62.15;101332.78;4931017;28;122453;-62
2021/12/06 05:28:22;;;;;;;24.27;12.57;;;;;;;7.62;62.38;101335.53;4929423;28;114328;-62
2021/12/06 05:30:54;;;;;;;20.05;11.73;;;;;;;7.58;62.45;101334.75;4926989;28;114349;-62
2021/12/06 05:33:30;;;;;;;20.65;11.40;;;;;;;7.54;62.19;101331.31;4940138;28;124181;-62
2021/12/06 05:36:02;;;;;;;22.40;10.98;;;;;;;7.48;62.08;101333.22;4925907;28;124136;-62
2021/12/06 05:38:30;;;;;;;22.80;11.57;;;;;;;7.44;62.12;101342.13;4931058;28;114529;-63
2021/12/06 05:40:57;;;;;;;22.13;12.15;;;;;;;7.39;61.93;101347.50;4928171;28;113471;-62
2021/12/06 05:43:25;;;;;;;21.98;12.23;;;;;;;7.34;61.82;101352.00;4931572;28;124122;-63
2021/12/06 05:45:53;;;;;;;24.50;11.70;;;;;;;7.27;61.79;101355.69;4930380;28;123576;-63
2021/12/06 05:48:20;;;;;;;25.20;12.02;;;;;;;7.21;62.10;101352.31;4930322;28;114648;-62
2021/12/06 05:50:50;;;;;;;21.83;12.05;;;;;;;7.16;61.99;101343.63;4930263;28;114801;-62
2021/12/06 05:53:18;;;;;;;26.00;11.80;;;;;;;7.12;62.15;101346.34;4927986;28;123788;-62
2021/12/06 05:55:46;;;;;;;24.13;12.05;;;;;;;7.08;62.14;101340.28;4927940;28;124963;-63
2021/12/06 05:58:18;;;;;;;21.08;11.05;;;;;;;7.04;61.96;101333.38;4931505;28;116506;-63
2021/12/06 06:00:46;;;;;;;25.35;11.13;;;;;;;6.99;62.24;101343.16;4927766;28;115246;-62
2021/12/06 06:03:15;;;;;;;20.35;11.05;;;;;;;6.93;61.86;101340.63;4931488;28;124001;-62
2021/12/06 06:05:43;;;;;;;22.52;11.52;;;;;;;6.88;62.19;101347.78;4929107;28;123952;-62
2021/12/06 06:08:10;;;;;;;22.80;12.27;;;;;;;6.82;62.33;101343.53;4929250;28;114258;-62
2021/12/06 06:10:38;;;;;;;23.23;11.73;;;;;;;6.76;62.31;101339.25;4931471;28;114131;-62
2021/12/06 06:13:08;;;;;;;26.92;12.80;;;;;;;6.71;62.17;101346.38;4931149;28;123736;-62
2021/12/06 06:15:36;;;;;;;27.55;12.38;;;;;;;6.69;62.46;101342.06;4928608;28;123740;-62
2021/12/06 06:18:05;;;;;;;25.48;12.07;;;;;;;6.67;62.41;101357.88;4929219;28;114267;-62
2021/12/06 06:21:05;;;;;;;27.35;12.32;;;;;;;6.63;62.33;101361.47;4928998;28;114439;-62
2021/12/06 06:23:33;;;;;;;21.10;10.77;;;;;;;6.60;62.34;101359.75;4898928;28;124646;-62
2021/12/06 06:26:01;;;;;;;22.63;11.13;;;;;;;6.59;62.48;101367.66;4929731;28;123970;-62
2021/12/06 06:28:28;;;;;;;22.92;10.85;;;;;;;6.57;62.50;101364.19;4929614;28;114899;-62
2021/12/06 06:30:55;;;;;;;24.98;11.45;;;;;;;6.54;62.49;101365.16;4930266;28;114286;-62
2021/12/06 06:33:24;;;;;;;21.35;11.13;;;;;;;6.53;62.37;101362.53;4930765;28;123337;-62
2021/12/06 06:35:52;;;;;;;22.92;11.27;;;;;;;6.51;62.40;101365.19;4931410;28;124749;-62
2021/12/06 06:38:20;;;;;;;25.05;11.77;;;;;;;6.50;62.62;101373.09;4927734;28;114147;-62
2021/12/06 06:40:47;;;;;;;26.00;11.48;;;;;;;6.49;62.54;101377.50;4929673;28;114772;-62
2021/12/06 06:43:14;;;;;;;25.73;12.38;;;;;;;6.50;62.81;101374.00;4928523;28;123512;-63
2021/12/06 06:45:41;;;;;;;25.70;11.68;;;;;;;6.51;62.84;101374.84;4930608;28;123820;-63
2021/12/06 06:48:09;;;;;;;26.30;11.93;;;;;;;6.54;62.80;101374.81;4926370;28;115271;-62
2021/12/06 06:50:36;;;;;;;26.73;11.98;;;;;;;6.55;62.73;101371.25;4926448;28;115131;-62
2021/12/06 06:53:04;;;;;;;29.25;13.15;;;;;;;6.57;62.72;101380.00;4930634;28;124660;-62
2021/12/06 06:55:31;;;;;;;24.10;12.05;;;;;;;6.58;62.77;101387.00;4925129;28;124619;-62
2021/12/06 06:57:58;;;;;;;29.83;13.20;;;;;;;6.60;62.98;101377.31;4928209;28;114208;-62
2021/12/06 07:00:36;;;;;;;24.80;12.30;;;;;;;6.62;63.20;101384.28;4926654;28;114242;-60
2021/12/06 07:03:06;;;;;;;29.02;11.43;;;;;;;6.64;62.98;101381.63;4928588;28;124003;-61
2021/12/06 07:05:35;;;;;;;29.90;10.63;;;;;;;6.66;62.98;101382.44;4927572;28;123865;-62
2021/12/06 07:08:03;;;;;;;22.55;10.85;;;;;;;6.66;62.94;101385.06;4930362;28;114449;-61
2021/12/06 07:10:30;;;;;;;35.15;11.07;;;;;;;6.69;62.78;101395.56;4929771;28;114359;-61
2021/12/06 07:13:00;;;;;;;28.05;10.45;;;;;;;6.69;62.84;101397.31;4929664;28;124075;-62
2021/12/06 07:15:30;;;;;;;35.42;10.23;;;;;;;6.68;63.21;101399.06;4930676;28;124966;-61
2021/12/06 07:17:58;;;;;;;41.38;10.00;;;;;;;6.68;62.90;101393.81;4926612;28;114381;-62
2021/12/06 07:20:26;;;;;;;30.45;9.57;;;;;;;6.70;63.19;101402.53;4926756;28;114190;-61
2021/12/06 07:22:54;;;;;;;31.95;10.20;;;;;;;6.70;63.06;101401.69;4926817;28;123844;-61
2021/12/06 07:25:27;;;;;;;40.45;10.13;;;;;;;6.71;63.03;101406.06;4929690;28;124489;-61
2021/12/06 07:27:54;;;;;;;28.73;10.00;;;;;;;6.70;63.26;101399.91;4929160;28;114070;-61
2021/12/06 07:30:21;;;;;;;41.63;10.20;;;;;;;6.73;63.13;101407.75;4927805;28;113984;-61
2021/12/06 07:32:51;;;;;;;46.78;9.90;;;;;;;6.74;63.46;101408.59;4923544;28;124797;-60
2021/12/06 07:35:20;;;;;;;41.90;9.63;;;;;;;6.75;63.00;101403.31;4927141;28;124415;-60
2021/12/06 07:37:47;;;;;;;39.25;9.45;;;;;;;6.77;63.17;101414.69;4927258;28;116125;-61
2021/12/06 07:40:17;;;;;;;40.78;9.77;;;;;;;6.78;63.38;101411.16;4927906;28;113879;-62
2021/12/06 07:42:45;;;;;;;26.30;9.60;;;;;;;6.76;62.97;101412.97;4927615;28;124439;-62
2021/12/06 07:45:17;;;;;;;39.50;8.77;;;;;;;6.74;63.19;101425.28;4927702;28;124232;-62
2021/12/06 07:47:44;;;;;;;39.88;7.95;;;;;;;6.74;63.45;101425.28;4941917;28;114999;-62
2021/12/06 07:50:15;;;;;;;20.88;7.20;;;;;;;6.71;62.95;101430.59;4938245;28;114857;-62
2021/12/06 07:52:49;;;;;;;23.83;7.70;;;;;;;6.64;62.70;101429.00;4929118;28;124333;-62
2021/12/06 07:55:19;;;;;;;23.80;7.97;;;;;;;6.58;63.15;101429.13;4941679;28;124147;-61
2021/12/06 07:57:46;;;;;;;27.17;7.85;;;;;;;6.55;62.88;101424.75;4928200;28;114288;-61
2021/12/06 08:00:18;;;;;;;19.40;8.25;;;;;;;6.55;63.35;101429.16;4926461;28;114016;-62
2021/12/06 08:02:46;;;;;;;22.85;8.52;;;;;;;6.54;63.10;101428.31;4927383;28;124297;-62
2021/12/06 08:05:29;;;;;;;24.00;8.73;;;;;;;6.55;63.05;101429.16;4924963;28;123770;-62
2021/12/06 08:08:23;;;;;;;25.30;8.90;;;;;;;6.49;63.20;101424.03;4926747;28;115083;-62
2021/12/06 08:11:10;;;;;;;18.88;8.40;;;;;;;6.43;62.94;101410.06;4920868;28;113888;-62
2021/12/06 08:13:40;;;;;;;15.90;8.20;;;;;;;6.41;63.40;101417.13;4928313;28;123937;-62
2021/12/06 08:16:12;;;;;;;22.63;8.48;;;;;;;6.41;63.07;101417.13;4930282;28;123678;-61
2021/12/06 08:18:39;;;;;;;17.50;8.98;;;;;;;6.41;63.32;101413.63;4922697;28;114226;-62
2021/12/06 08:21:07;;;;;;;16.80;9.20;;;;;;;6.41;63.15;101416.28;4929897;28;114093;-62
2021/12/06 08:23:35;;;;;;;18.27;8.10;;;;;;;6.38;63.11;101411.91;4931566;28;124422;-62
2021/12/06 08:26:05;;;;;;;19.02;8.02;;;;;;;6.36;62.99;101407.59;4934052;28;125596;-62
2021/12/06 08:28:34;;;;;;;25.17;8.23;;;;;;;6.32;63.02;101406.78;4931403;28;115129;-61
2021/12/06 08:31:03;;;;;;;31.75;8.90;;;;;;;6.31;63.21;101405.06;4930226;28;115703;-61
2021/12/06 08:33:31;;;;;;;23.27;8.32;;;;;;;6.30;63.00;101398.03;4932698;28;124026;-61
2021/12/06 08:35:59;;;;;;;28.10;8.73;;;;;;;6.29;63.27;101401.59;4930350;28;124260;-62
2021/12/06 08:38:29;;;;;;;18.20;7.72;;;;;;;6.30;63.20;101400.69;4934093;28;115553;-61
2021/12/06 08:40:59;;;;;;;35.33;8.57;;;;;;;6.31;63.17;101399.78;4932144;28;114438;-61
2021/12/06 08:43:27;;;;;;;28.67;7.75;;;;;;;6.32;63.04;101401.50;4933025;28;123170;-62
2021/12/06 08:45:59;;;;;;;35.90;8.07;;;;;;;6.30;62.86;101398.03;4932044;28;124073;-61
2021/12/06 08:48:30;;;;;;;30.02;8.45;;;;;;;6.28;63.23;101405.09;4933384;28;113695;-62
2021/12/06 08:51:01;;;;;;;28.35;7.80;;;;;;;6.27;63.49;101413.88;4923204;28;113704;-61
2021/12/06 08:53:29;;;;;;;31.15;7.60;;;;;;;6.27;63.31;101413.88;4912509;28;124058;-62
2021/12/06 08:55:57;;;;;;;28.98;8.02;;;;;;;6.27;63.16;101420.91;4913688;28;123877;-61
2021/12/06 08:58:24;;;;;;;13.90;7.55;;;;;;;6.27;63.41;101427.03;4917838;28;114754;-62
2021/12/06 09:00:52;;;;;;;24.23;8.63;;;;;;;6.29;63.25;101427.91;4928758;28;113874;-61
2021/12/06 09:03:19;;;;;;;23.58;8.43;;;;;;;6.31;63.27;101436.63;4932874;28;123942;-62
2021/12/06 09:05:52;;;;;;;20.20;8.18;;;;;;;6.35;63.55;101440.06;4919454;28;123725;-62
2021/12/06 09:08:19;;;;;;;17.88;8.95;;;;;;;6.37;63.62;101441.75;4918410;28;114175;-61
2021/12/06 09:10:51;;;;;;;17.48;8.63;;;;;;;6.40;63.40;101446.09;4930835;28;114007;-61
2021/12/06 09:13:20;;;;;;;27.52;8.68;;;;;;;6.40;63.52;101441.72;4926336;28;124206;-61
2021/12/06 09:15:51;;;;;;;21.90;9.25;;;;;;;6.39;63.25;101437.34;4919716;28;123497;-61
2021/12/06 09:18:20;;;;;;;22.33;9.45;;;;;;;6.40;63.18;101432.94;4931143;28;115465;-61
2021/12/06 09:20:50;;;;;;;16.63;9.35;;;;;;;6.40;63.25;101431.19;4928774;28;114733;-61
2021/12/06 09:23:18;;;;;;;20.50;9.98;;;;;;;6.41;63.34;101432.91;4930563;28;125246;-62
2021/12/06 09:25:47;;;;;;;24.88;10.48;;;;;;;6.46;63.72;101445.13;4931987;28;124243;-62
2021/12/06 09:28:16;;;;;;;28.70;9.73;;;;;;;6.47;63.37;101444.22;4917792;28;113656;-61
2021/12/06 09:30:45;;;;;;;23.50;9.90;;;;;;;6.48;63.57;101443.31;4929947;28;113866;-61
2021/12/06 09:33:15;;;;;;;21.45;11.15;;;;;;;6.48;63.73;101444.22;4928157;28;124773;-62
2021/12/06 09:35:45;;;;;;;20.33;10.45;;;;;;;6.52;63.65;101442.41;4922645;28;124394;-61
2021/12/06 09:38:16;;;;;;;21.58;10.20;;;;;;;6.55;63.38;101434.41;4928563;28;114316;-62
2021/12/06 09:40:47;;;;;;;19.83;11.10;;;;;;;6.57;63.59;101437.88;4921346;28;114296;-61
2021/12/06 09:43:16;;;;;;;24.10;10.95;;;;;;;6.62;63.62;101441.31;4920977;28;124060;-62
2021/12/06 09:45:43;;;;;;;26.92;11.60;;;;;;;6.66;63.96;101442.97;4920895;28;123906;-61
2021/12/06 09:48:15;;;;;;;22.17;11.15;;;;;;;6.72;64.07;101436.72;4931637;28;113869;-62
2021/12/06 09:50:59;;;;;;;26.30;11.73;;;;;;;6.77;63.90;101446.28;4931768;28;114379;-61
2021/12/06 09:53:33;;;;;;;24.60;11.23;;;;;;;6.85;64.08;101443.50;4932345;28;124026;-62
2021/12/06 09:56:06;;;;;;;26.63;11.68;;;;;;;6.91;64.18;101442.50;4928662;28;123657;-62
2021/12/06 09:58:35;;;;;;;27.13;11.70;;;;;;;6.99;64.00;101440.59;4931270;28;114196;-61
2021/12/06 10:01:13;;;;;;;31.38;12.40;;;;;;;7.05;63.97;101434.34;4927533;28;113971;-61
2021/12/06 10:03:46;;;;;;;26.42;12.05;;;;;;;7.08;63.94;101429.84;4933628;28;124630;-61
2021/12/06 10:06:15;;;;;;;29.45;12.07;;;;;;;7.12;63.98;101428.91;4944566;28;125075;-61
2021/12/06 10:08:45;;;;;;;32.15;12.45;;;;;;;7.15;63.93;101431.44;4944426;28;114336;-62
2021/12/06 10:11:15;;;;;;;33.13;13.25;;;;;;;7.18;63.77;101439.31;4930167;28;115472;-62
2021/12/06 10:13:43;;;;;;;29.23;12.52;;;;;;;7.22;63.94;101438.31;4931035;28;124726;-62
2021/12/06 10:16:13;;;;;;;29.40;11.98;;;;;;;7.26;63.71;101438.28;4929187;28;124155;-62
2021/12/06 10:18:40;;;;;;;35.80;12.93;;;;;;;7.29;63.66;101427.66;4927279;28;113827;-61
2021/12/06 10:21:08;;;;;;;33.03;12.27;;;;;;;7.32;63.98;101428.44;4925116;28;113918;-62
2021/12/06 10:23:37;;;;;;;35.25;12.75;;;;;;;7.34;63.65;101425.78;4928205;28;124402;-62
2021/12/06 10:26:07;;;;;;;31.95;12.07;;;;;;;7.35;63.64;101414.34;4930811;28;124258;-62
2021/12/06 10:28:35;;;;;;;31.15;11.63;;;;;;;7.34;63.74;101415.25;4929243;28;114006;-62
2021/12/06 10:31:07;;;;;;;28.75;12.85;;;;;;;7.32;63.39;101423.19;4923830;28;113026;-61
2021/12/06 10:33:44;;;;;;;29.33;11.68;;;;;;;7.31;63.45;101415.31;4923099;28;124752;-61
2021/12/06 10:36:18;;;;;;;35.03;12.65;;;;;;;7.28;63.47;101410.13;4929875;28;123294;-61
2021/12/06 10:38:53;;;;;;;30.67;12.45;;;;;;;7.25;63.66;101405.78;4932387;28;114613;-62
2021/12/06 10:41:29;;;;;;;22.98;11.15;;;;;;;7.26;63.65;101401.38;4922494;28;114154;-62
2021/12/06 10:44:00;;;;;;;29.10;12.63;;;;;;;7.22;63.31;101380.38;4928526;28;124001;-62
2021/12/06 10:46:28;;;;;;;28.10;12.50;;;;;;;7.22;63.28;101380.38;4914596;28;123804;-62
2021/12/06 10:48:59;;;;;;;27.08;11.70;;;;;;;7.22;63.83;101375.09;4923699;28;113054;-62
2021/12/06 10:51:27;;;;;;;28.45;12.38;;;;;;;7.21;63.73;101376.03;4928813;28;113787;-61
2021/12/06 10:54:09;;;;;;;27.90;12.65;;;;;;;7.24;63.53;101382.13;4921546;28;124550;-61
2021/12/06 10:56:44;;;;;;;27.65;12.90;;;;;;;7.24;63.53;101382.13;4927031;28;124281;-61
2021/12/06 10:59:22;;;;;;;28.23;12.32;;;;;;;7.22;63.42;101377.72;4928374;28;116333;-62
2021/12/06 11:01:52;;;;;;;28.67;12.30;;;;;;;7.24;63.67;101374.22;4926648;28;115040;-62
2021/12/06 11:04:22;;;;;;;29.95;13.10;;;;;;;7.24;63.67;101366.31;4931165;28;123104;-61
2021/12/06 11:06:53;;;;;;;27.30;13.13;;;;;;;7.25;63.59;101362.75;4929250;28;124114;-62
2021/12/06 11:09:26;;;;;;;25.77;12.38;;;;;;;7.27;63.59;101350.41;4926509;28;114396;-61
2021/12/06 11:11:58;;;;;;;29.77;12.70;;;;;;;7.28;63.56;101347.75;4927866;28;114695;-61
2021/12/06 11:14:32;;;;;;;26.02;11.70;;;;;;;7.28;63.79;101347.75;4925259;28;124338;-61
2021/12/06 11:17:12;;;;;;;28.05;12.38;;;;;;;7.29;63.87;101338.06;4937651;28;122999;-61
2021/12/06 11:19:40;;;;;;;29.73;12.25;;;;;;;7.29;63.57;101332.81;4929453;28;114009;-61
2021/12/06 11:22:17;;;;;;;31.42;13.27;;;;;;;7.28;63.40;101321.41;4930283;28;114445;-61
2021/12/06 11:24:48;;;;;;;30.23;12.90;;;;;;;7.29;63.90;101317.00;4928712;28;124722;-61
2021/12/06 11:27:28;;;;;;;30.58;12.40;;;;;;;7.31;63.73;101320.44;4924585;28;123819;-61
2021/12/06 11:30:03;;;;;;;28.98;12.68;;;;;;;7.34;63.74;101325.66;4937279;28;114253;-61
2021/12/06 11:32:34;;;;;;;30.05;12.90;;;;;;;7.36;63.90;101318.59;4931218;28;113905;-61
2021/12/06 11:35:06;;;;;;;27.27;12.40;;;;;;;7.37;63.47;101315.06;4921443;28;124032;-61
2021/12/06 11:37:41;;;;;;;30.90;12.60;;;;;;;7.38;63.57;101319.41;4930665;28;124483;-61